sensor_id;sensor_type;location;lat;lon;timestamp;temperature;humidity
17774;DHT22;9011;33.236;-97.118;2023-03-12T00:01:15;29.10;99.90
17774;DHT22;9011;33.236;-97.118;2023-03-12T00:03:44;29.00;99.90
17774;DHT22;9011;33.236;-97.118;2023-03-12T00:06:13;28.80;99.90
17774;DHT22;9011;33.236;-97.118;2023-03-12T00:08:41;28.70;99.90
17774;DHT22;9011;33.236;-97.118;2023-03-12T00:11:13;28.60;99.90
17774;DHT22;9011;33.236;-97.118;2023-03-12T00:13:42;28.50;99.90
17774;DHT22;9011;33.236;-97.118;2023-03-12T00:16:12;28.40;99.90
17774;DHT22;9011;33.236;-97.118;2023-03-12T00:18:41;28.30;99.90
17774;DHT22;9011;33.236;-97.118;2023-03-12T00:21:10;28.20;99.90
17774;DHT22;9011;33.236;-97.118;2023-03-12T00:23:38;28.10;99.90
17774;DHT22;9011;33.236;-97.118;2023-03-12T00:26:10;27.90;99.90
17774;DHT22;9011;33.236;-97.118;2023-03-12T00:28:40;27.80;99.90
17774;DHT22;9011;33.236;-97.118;2023-03-12T00:31:16;27.70;99.90
17774;DHT22;9011;33.236;-97.118;2023-03-12T00:33:44;27.50;99.90
17774;DHT22;9011;33.236;-97.118;2023-03-12T00:36:15;27.30;99.90
17774;DHT22;9011;33.236;-97.118;2023-03-12T00:38:43;27.20;99.90
17774;DHT22;9011;33.236;-97.118;2023-03-12T00:41:13;27.00;99.90
17774;DHT22;9011;33.236;-97.118;2023-03-12T00:43:41;26.70;99.90
17774;DHT22;9011;33.236;-97.118;2023-03-12T00:46:10;26.60;99.90
17774;DHT22;9011;33.236;-97.118;2023-03-12T00:48:38;26.40;99.90
17774;DHT22;9011;33.236;-97.118;2023-03-12T00:51:07;26.40;99.90
17774;DHT22;9011;33.236;-97.118;2023-03-12T00:53:36;26.20;99.90
17774;DHT22;9011;33.236;-97.118;2023-03-12T00:56:05;26.20;99.90
17774;DHT22;9011;33.236;-97.118;2023-03-12T00:58:35;26.10;99.90
17774;DHT22;9011;33.236;-97.118;2023-03-12T01:01:04;26.10;99.90
17774;DHT22;9011;33.236;-97.118;2023-03-12T01:03:32;25.90;99.90
17774;DHT22;9011;33.236;-97.118;2023-03-12T01:06:01;25.70;99.90
17774;DHT22;9011;33.236;-97.118;2023-03-12T01:08:29;25.60;99.90
17774;DHT22;9011;33.236;-97.118;2023-03-12T01:10:58;25.50;99.90
17774;DHT22;9011;33.236;-97.118;2023-03-12T01:13:29;25.50;99.90
17774;DHT22;9011;33.236;-97.118;2023-03-12T01:16:00;25.30;99.90
17774;DHT22;9011;33.236;-97.118;2023-03-12T01:18:31;25.30;99.90
17774;DHT22;9011;33.236;-97.118;2023-03-12T01:20:59;25.20;99.90
17774;DHT22;9011;33.236;-97.118;2023-03-12T01:23:28;25.10;99.90
17774;DHT22;9011;33.236;-97.118;2023-03-12T01:25:58;25.00;99.90
17774;DHT22;9011;33.236;-97.118;2023-03-12T01:28:32;24.90;99.90
17774;DHT22;9011;33.236;-97.118;2023-03-12T01:31:11;24.70;99.90
17774;DHT22;9011;33.236;-97.118;2023-03-12T01:33:41;24.60;99.90
17774;DHT22;9011;33.236;-97.118;2023-03-12T01:36:18;24.50;99.90
17774;DHT22;9011;33.236;-97.118;2023-03-12T01:39:02;24.30;99.90
17774;DHT22;9011;33.236;-97.118;2023-03-12T01:41:33;24.20;99.90
17774;DHT22;9011;33.236;-97.118;2023-03-12T01:44:03;23.90;99.90
17774;DHT22;9011;33.236;-97.118;2023-03-12T01:46:37;23.90;99.90
17774;DHT22;9011;33.236;-97.118;2023-03-12T01:49:10;23.70;99.90
17774;DHT22;9011;33.236;-97.118;2023-03-12T01:51:43;23.60;99.90
17774;DHT22;9011;33.236;-97.118;2023-03-12T01:54:15;23.50;99.90
17774;DHT22;9011;33.236;-97.118;2023-03-12T01:56:45;23.60;99.90
17774;DHT22;9011;33.236;-97.118;2023-03-12T01:59:19;23.60;99.90
17774;DHT22;9011;33.236;-97.118;2023-03-12T02:01:51;23.60;99.90
17774;DHT22;9011;33.236;-97.118;2023-03-12T02:04:22;23.60;99.90
17774;DHT22;9011;33.236;-97.118;2023-03-12T02:07:02;23.60;99.90
17774;DHT22;9011;33.236;-97.118;2023-03-12T02:09:33;23.80;99.90
17774;DHT22;9011;33.236;-97.118;2023-03-12T02:12:02;23.90;99.90
17774;DHT22;9011;33.236;-97.118;2023-03-12T02:14:34;23.90;99.90
17774;DHT22;9011;33.236;-97.118;2023-03-12T02:17:05;24.00;99.90
17774;DHT22;9011;33.236;-97.118;2023-03-12T02:19:40;24.10;99.90
17774;DHT22;9011;33.236;-97.118;2023-03-12T02:22:10;24.20;99.90
17774;DHT22;9011;33.236;-97.118;2023-03-12T02:24:43;24.30;99.90
17774;DHT22;9011;33.236;-97.118;2023-03-12T02:27:16;24.30;99.90
17774;DHT22;9011;33.236;-97.118;2023-03-12T02:29:45;24.30;99.90
17774;DHT22;9011;33.236;-97.118;2023-03-12T02:32:19;24.20;99.90
17774;DHT22;9011;33.236;-97.118;2023-03-12T02:34:48;24.20;99.90
17774;DHT22;9011;33.236;-97.118;2023-03-12T02:37:17;24.20;99.90
17774;DHT22;9011;33.236;-97.118;2023-03-12T02:39:50;24.10;99.90
17774;DHT22;9011;33.236;-97.118;2023-03-12T02:42:23;24.10;99.90
17774;DHT22;9011;33.236;-97.118;2023-03-12T02:44:53;24.00;99.90
17774;DHT22;9011;33.236;-97.118;2023-03-12T02:47:21;24.00;99.90
17774;DHT22;9011;33.236;-97.118;2023-03-12T02:49:50;24.00;99.90
17774;DHT22;9011;33.236;-97.118;2023-03-12T02:52:19;23.90;99.90
17774;DHT22;9011;33.236;-97.118;2023-03-12T02:54:47;23.80;99.90
17774;DHT22;9011;33.236;-97.118;2023-03-12T02:57:16;23.80;99.90
17774;DHT22;9011;33.236;-97.118;2023-03-12T02:59:46;23.70;99.90
17774;DHT22;9011;33.236;-97.118;2023-03-12T03:02:14;23.60;99.90
17774;DHT22;9011;33.236;-97.118;2023-03-12T03:04:43;23.60;99.90
17774;DHT22;9011;33.236;-97.118;2023-03-12T03:07:12;23.50;99.90
17774;DHT22;9011;33.236;-97.118;2023-03-12T03:09:41;23.30;99.90
17774;DHT22;9011;33.236;-97.118;2023-03-12T03:12:09;23.20;99.90
17774;DHT22;9011;33.236;-97.118;2023-03-12T03:14:38;23.00;99.90
17774;DHT22;9011;33.236;-97.118;2023-03-12T03:17:08;22.90;99.90
17774;DHT22;9011;33.236;-97.118;2023-03-12T03:19:36;22.70;99.90
17774;DHT22;9011;33.236;-97.118;2023-03-12T03:22:05;22.50;99.90
17774;DHT22;9011;33.236;-97.118;2023-03-12T03:24:36;22.40;99.90
17774;DHT22;9011;33.236;-97.118;2023-03-12T03:27:05;22.20;99.90
17774;DHT22;9011;33.236;-97.118;2023-03-12T03:29:33;22.00;99.90
17774;DHT22;9011;33.236;-97.118;2023-03-12T03:32:02;22.00;99.90
17774;DHT22;9011;33.236;-97.118;2023-03-12T03:34:33;22.00;99.90
17774;DHT22;9011;33.236;-97.118;2023-03-12T03:37:01;21.80;99.90
17774;DHT22;9011;33.236;-97.118;2023-03-12T03:39:29;21.70;99.90
17774;DHT22;9011;33.236;-97.118;2023-03-12T03:41:58;21.70;99.90
17774;DHT22;9011;33.236;-97.118;2023-03-12T03:44:26;21.60;99.90
17774;DHT22;9011;33.236;-97.118;2023-03-12T03:46:55;21.60;99.90
17774;DHT22;9011;33.236;-97.118;2023-03-12T03:49:24;21.50;99.90
17774;DHT22;9011;33.236;-97.118;2023-03-12T03:51:54;21.40;99.90
17774;DHT22;9011;33.236;-97.118;2023-03-12T03:54:23;21.30;99.90
17774;DHT22;9011;33.236;-97.118;2023-03-12T03:56:51;21.30;99.90
17774;DHT22;9011;33.236;-97.118;2023-03-12T03:59:19;21.20;99.90
17774;DHT22;9011;33.236;-97.118;2023-03-12T04:01:48;21.20;99.90
17774;DHT22;9011;33.236;-97.118;2023-03-12T04:04:16;21.10;99.90
17774;DHT22;9011;33.236;-97.118;2023-03-12T04:06:45;21.10;99.90
17774;DHT22;9011;33.236;-97.118;2023-03-12T04:09:16;21.10;99.90
17774;DHT22;9011;33.236;-97.118;2023-03-12T04:11:44;21.00;99.90
17774;DHT22;9011;33.236;-97.118;2023-03-12T04:14:13;20.90;99.90
17774;DHT22;9011;33.236;-97.118;2023-03-12T04:16:41;20.80;99.90
17774;DHT22;9011;33.236;-97.118;2023-03-12T04:19:10;20.80;99.90
17774;DHT22;9011;33.236;-97.118;2023-03-12T04:21:38;20.70;99.90
17774;DHT22;9011;33.236;-97.118;2023-03-12T04:24:07;20.60;99.90
17774;DHT22;9011;33.236;-97.118;2023-03-12T04:26:41;20.50;99.90
17774;DHT22;9011;33.236;-97.118;2023-03-12T04:29:10;20.40;99.90
17774;DHT22;9011;33.236;-97.118;2023-03-12T04:31:38;20.40;99.90
17774;DHT22;9011;33.236;-97.118;2023-03-12T04:34:06;20.30;99.90
17774;DHT22;9011;33.236;-97.118;2023-03-12T04:36:35;20.20;99.90
17774;DHT22;9011;33.236;-97.118;2023-03-12T04:39:04;20.10;99.90
17774;DHT22;9011;33.236;-97.118;2023-03-12T04:41:33;20.00;99.90
17774;DHT22;9011;33.236;-97.118;2023-03-12T04:44:04;19.90;99.90
17774;DHT22;9011;33.236;-97.118;2023-03-12T04:46:32;19.90;99.90
17774;DHT22;9011;33.236;-97.118;2023-03-12T04:49:01;19.80;99.90
17774;DHT22;9011;33.236;-97.118;2023-03-12T04:51:30;19.70;99.90
17774;DHT22;9011;33.236;-97.118;2023-03-12T04:53:58;19.70;99.90
17774;DHT22;9011;33.236;-97.118;2023-03-12T04:56:27;19.70;99.90
17774;DHT22;9011;33.236;-97.118;2023-03-12T04:58:56;19.50;99.90
17774;DHT22;9011;33.236;-97.118;2023-03-12T05:01:28;19.50;99.90
17774;DHT22;9011;33.236;-97.118;2023-03-12T05:03:57;19.40;99.90
17774;DHT22;9011;33.236;-97.118;2023-03-12T05:06:26;19.30;99.90
17774;DHT22;9011;33.236;-97.118;2023-03-12T05:08:54;19.20;99.90
17774;DHT22;9011;33.236;-97.118;2023-03-12T05:11:23;19.10;99.90
17774;DHT22;9011;33.236;-97.118;2023-03-12T05:13:52;19.00;99.90
17774;DHT22;9011;33.236;-97.118;2023-03-12T05:16:20;18.90;99.90
17774;DHT22;9011;33.236;-97.118;2023-03-12T05:18:50;18.80;99.90
17774;DHT22;9011;33.236;-97.118;2023-03-12T05:21:20;18.80;99.90
17774;DHT22;9011;33.236;-97.118;2023-03-12T05:23:48;18.70;99.90
17774;DHT22;9011;33.236;-97.118;2023-03-12T05:26:18;18.60;99.90
17774;DHT22;9011;33.236;-97.118;2023-03-12T05:28:47;18.60;99.90
17774;DHT22;9011;33.236;-97.118;2023-03-12T05:31:16;18.40;99.90
17774;DHT22;9011;33.236;-97.118;2023-03-12T05:33:45;18.40;99.90
17774;DHT22;9011;33.236;-97.118;2023-03-12T05:36:15;18.30;99.90
17774;DHT22;9011;33.236;-97.118;2023-03-12T05:38:44;18.30;99.90
17774;DHT22;9011;33.236;-97.118;2023-03-12T05:41:22;18.20;99.90
17774;DHT22;9011;33.236;-97.118;2023-03-12T05:43:52;18.10;99.90
17774;DHT22;9011;33.236;-97.118;2023-03-12T05:46:21;18.00;99.90
17774;DHT22;9011;33.236;-97.118;2023-03-12T05:48:50;17.90;99.90
17774;DHT22;9011;33.236;-97.118;2023-03-12T05:51:21;17.90;99.90
17774;DHT22;9011;33.236;-97.118;2023-03-12T05:53:49;17.80;99.90
17774;DHT22;9011;33.236;-97.118;2023-03-12T05:56:18;17.70;99.90
17774;DHT22;9011;33.236;-97.118;2023-03-12T05:58:47;17.60;99.90
17774;DHT22;9011;33.236;-97.118;2023-03-12T06:01:18;17.50;99.90
17774;DHT22;9011;33.236;-97.118;2023-03-12T06:03:48;17.50;99.90
17774;DHT22;9011;33.236;-97.118;2023-03-12T06:06:19;17.40;99.90
17774;DHT22;9011;33.236;-97.118;2023-03-12T06:08:48;17.40;99.90
17774;DHT22;9011;33.236;-97.118;2023-03-12T06:11:17;17.30;99.90
17774;DHT22;9011;33.236;-97.118;2023-03-12T06:13:46;17.20;99.90
17774;DHT22;9011;33.236;-97.118;2023-03-12T06:16:17;17.20;99.90
17774;DHT22;9011;33.236;-97.118;2023-03-12T06:18:47;17.00;99.90
17774;DHT22;9011;33.236;-97.118;2023-03-12T06:21:17;16.90;99.90
17774;DHT22;9011;33.236;-97.118;2023-03-12T06:23:48;16.90;99.90
17774;DHT22;9011;33.236;-97.118;2023-03-12T06:26:16;16.90;99.90
17774;DHT22;9011;33.236;-97.118;2023-03-12T06:28:45;16.80;99.90
17774;DHT22;9011;33.236;-97.118;2023-03-12T06:31:14;16.70;99.90
17774;DHT22;9011;33.236;-97.118;2023-03-12T06:33:43;16.60;99.90
17774;DHT22;9011;33.236;-97.118;2023-03-12T06:36:12;16.60;99.90
17774;DHT22;9011;33.236;-97.118;2023-03-12T06:38:40;16.50;99.90
17774;DHT22;9011;33.236;-97.118;2023-03-12T06:41:13;16.50;99.90
17774;DHT22;9011;33.236;-97.118;2023-03-12T06:43:43;16.40;99.90
17774;DHT22;9011;33.236;-97.118;2023-03-12T06:46:13;16.30;99.90
17774;DHT22;9011;33.236;-97.118;2023-03-12T06:48:42;16.30;99.90
17774;DHT22;9011;33.236;-97.118;2023-03-12T06:51:13;16.20;99.90
17774;DHT22;9011;33.236;-97.118;2023-03-12T06:53:41;16.00;99.90
17774;DHT22;9011;33.236;-97.118;2023-03-12T06:56:15;16.00;99.90
17774;DHT22;9011;33.236;-97.118;2023-03-12T06:58:43;15.90;99.90
17774;DHT22;9011;33.236;-97.118;2023-03-12T07:01:12;15.90;99.90
17774;DHT22;9011;33.236;-97.118;2023-03-12T07:03:40;15.80;99.90
17774;DHT22;9011;33.236;-97.118;2023-03-12T07:06:13;15.80;99.90
17774;DHT22;9011;33.236;-97.118;2023-03-12T07:08:42;15.70;99.90
17774;DHT22;9011;33.236;-97.118;2023-03-12T07:11:12;15.60;99.90
17774;DHT22;9011;33.236;-97.118;2023-03-12T07:13:42;15.50;99.90
17774;DHT22;9011;33.236;-97.118;2023-03-12T07:16:10;15.40;99.90
17774;DHT22;9011;33.236;-97.118;2023-03-12T07:18:39;15.30;99.90
17774;DHT22;9011;33.236;-97.118;2023-03-12T07:21:07;15.30;99.90
17774;DHT22;9011;33.236;-97.118;2023-03-12T07:23:36;15.30;99.90
17774;DHT22;9011;33.236;-97.118;2023-03-12T07:26:05;15.20;99.90
17774;DHT22;9011;33.236;-97.118;2023-03-12T07:28:33;15.10;99.90
17774;DHT22;9011;33.236;-97.118;2023-03-12T07:31:04;15.20;99.90
17774;DHT22;9011;33.236;-97.118;2023-03-12T07:33:32;15.10;99.90
17774;DHT22;9011;33.236;-97.118;2023-03-12T07:36:01;15.10;99.90
17774;DHT22;9011;33.236;-97.118;2023-03-12T07:38:29;15.10;99.90
17774;DHT22;9011;33.236;-97.118;2023-03-12T07:40:58;15.10;99.90
17774;DHT22;9011;33.236;-97.118;2023-03-12T07:43:27;15.00;99.90
17774;DHT22;9011;33.236;-97.118;2023-03-12T07:45:55;15.10;99.90
17774;DHT22;9011;33.236;-97.118;2023-03-12T07:48:26;15.00;99.90
17774;DHT22;9011;33.236;-97.118;2023-03-12T07:50:54;15.00;99.90
17774;DHT22;9011;33.236;-97.118;2023-03-12T07:53:23;15.10;99.90
17774;DHT22;9011;33.236;-97.118;2023-03-12T07:55:51;15.00;99.90
17774;DHT22;9011;33.236;-97.118;2023-03-12T07:58:20;15.00;99.90
17774;DHT22;9011;33.236;-97.118;2023-03-12T08:00:48;14.90;99.90
17774;DHT22;9011;33.236;-97.118;2023-03-12T08:03:18;14.90;99.90
17774;DHT22;9011;33.236;-97.118;2023-03-12T08:05:57;14.90;99.90
17774;DHT22;9011;33.236;-97.118;2023-03-12T08:08:26;14.80;99.90
17774;DHT22;9011;33.236;-97.118;2023-03-12T08:10:54;14.80;99.90
17774;DHT22;9011;33.236;-97.118;2023-03-12T08:13:23;14.80;99.90
17774;DHT22;9011;33.236;-97.118;2023-03-12T08:15:52;14.70;99.90
17774;DHT22;9011;33.236;-97.118;2023-03-12T08:18:21;14.70;99.90
17774;DHT22;9011;33.236;-97.118;2023-03-12T08:20:50;14.70;99.90
17774;DHT22;9011;33.236;-97.118;2023-03-12T08:23:21;14.70;99.90
17774;DHT22;9011;33.236;-97.118;2023-03-12T08:25:49;14.70;99.90
17774;DHT22;9011;33.236;-97.118;2023-03-12T08:28:19;14.60;99.90
17774;DHT22;9011;33.236;-97.118;2023-03-12T08:30:49;14.60;99.90
17774;DHT22;9011;33.236;-97.118;2023-03-12T08:33:18;14.60;99.90
17774;DHT22;9011;33.236;-97.118;2023-03-12T08:35:48;14.60;99.90
17774;DHT22;9011;33.236;-97.118;2023-03-12T08:38:17;14.50;99.90
17774;DHT22;9011;33.236;-97.118;2023-03-12T08:40:53;14.40;99.90
17774;DHT22;9011;33.236;-97.118;2023-03-12T08:43:21;14.40;99.90
17774;DHT22;9011;33.236;-97.118;2023-03-12T08:45:53;14.40;99.90
17774;DHT22;9011;33.236;-97.118;2023-03-12T08:48:22;14.20;99.90
17774;DHT22;9011;33.236;-97.118;2023-03-12T08:50:50;14.30;99.90
17774;DHT22;9011;33.236;-97.118;2023-03-12T08:53:21;14.30;99.90
17774;DHT22;9011;33.236;-97.118;2023-03-12T08:55:54;14.20;99.90
17774;DHT22;9011;33.236;-97.118;2023-03-12T08:58:23;14.20;99.90
17774;DHT22;9011;33.236;-97.118;2023-03-12T09:00:52;14.20;99.90
17774;DHT22;9011;33.236;-97.118;2023-03-12T09:03:21;14.20;99.90
17774;DHT22;9011;33.236;-97.118;2023-03-12T09:05:50;14.20;99.90
17774;DHT22;9011;33.236;-97.118;2023-03-12T09:08:29;14.20;99.90
17774;DHT22;9011;33.236;-97.118;2023-03-12T09:11:01;14.20;99.90
17774;DHT22;9011;33.236;-97.118;2023-03-12T09:13:29;14.10;99.90
17774;DHT22;9011;33.236;-97.118;2023-03-12T09:16:01;14.10;99.90
17774;DHT22;9011;33.236;-97.118;2023-03-12T09:18:31;14.00;99.90
17774;DHT22;9011;33.236;-97.118;2023-03-12T09:20:59;14.00;99.90
17774;DHT22;9011;33.236;-97.118;2023-03-12T09:23:28;14.00;99.90
17774;DHT22;9011;33.236;-97.118;2023-03-12T09:25:57;14.00;99.90
17774;DHT22;9011;33.236;-97.118;2023-03-12T09:28:27;14.00;99.90
17774;DHT22;9011;33.236;-97.118;2023-03-12T09:30:55;14.00;99.90
17774;DHT22;9011;33.236;-97.118;2023-03-12T09:33:24;14.00;99.90
17774;DHT22;9011;33.236;-97.118;2023-03-12T09:35:56;14.00;99.90
17774;DHT22;9011;33.236;-97.118;2023-03-12T09:38:25;14.00;99.90
17774;DHT22;9011;33.236;-97.118;2023-03-12T09:40:53;13.90;99.90
17774;DHT22;9011;33.236;-97.118;2023-03-12T09:43:28;13.80;99.90
17774;DHT22;9011;33.236;-97.118;2023-03-12T09:45:59;13.80;99.90
17774;DHT22;9011;33.236;-97.118;2023-03-12T09:48:32;13.80;99.90
17774;DHT22;9011;33.236;-97.118;2023-03-12T09:51:04;13.80;99.90
17774;DHT22;9011;33.236;-97.118;2023-03-12T09:53:36;13.80;99.90
17774;DHT22;9011;33.236;-97.118;2023-03-12T09:56:12;13.90;99.90
17774;DHT22;9011;33.236;-97.118;2023-03-12T09:58:44;13.90;99.90
17774;DHT22;9011;33.236;-97.118;2023-03-12T10:01:36;13.90;99.90
17774;DHT22;9011;33.236;-97.118;2023-03-12T10:04:20;13.90;99.90
17774;DHT22;9011;33.236;-97.118;2023-03-12T10:06:56;13.80;99.90
17774;DHT22;9011;33.236;-97.118;2023-03-12T10:10:10;13.80;99.90
17774;DHT22;9011;33.236;-97.118;2023-03-12T10:12:51;13.70;99.90
17774;DHT22;9011;33.236;-97.118;2023-03-12T10:15:42;13.70;99.90
17774;DHT22;9011;33.236;-97.118;2023-03-12T10:18:20;13.60;99.90
17774;DHT22;9011;33.236;-97.118;2023-03-12T10:20:58;13.60;99.90
17774;DHT22;9011;33.236;-97.118;2023-03-12T10:23:40;13.60;99.90
17774;DHT22;9011;33.236;-97.118;2023-03-12T10:26:15;13.60;99.90
17774;DHT22;9011;33.236;-97.118;2023-03-12T10:28:48;13.60;99.90
17774;DHT22;9011;33.236;-97.118;2023-03-12T10:31:22;13.60;99.90
17774;DHT22;9011;33.236;-97.118;2023-03-12T10:33:55;13.50;99.90
17774;DHT22;9011;33.236;-97.118;2023-03-12T10:36:27;13.50;99.90
17774;DHT22;9011;33.236;-97.118;2023-03-12T10:38:56;13.50;99.90
17774;DHT22;9011;33.236;-97.118;2023-03-12T10:41:28;13.40;99.90
17774;DHT22;9011;33.236;-97.118;2023-03-12T10:44:00;13.40;99.90
17774;DHT22;9011;33.236;-97.118;2023-03-12T10:47:09;13.30;99.90
17774;DHT22;9011;33.236;-97.118;2023-03-12T10:49:41;13.30;99.90
17774;DHT22;9011;33.236;-97.118;2023-03-12T10:52:15;13.20;99.90
17774;DHT22;9011;33.236;-97.118;2023-03-12T10:54:46;13.20;99.90
17774;DHT22;9011;33.236;-97.118;2023-03-12T10:57:15;13.20;99.90
17774;DHT22;9011;33.236;-97.118;2023-03-12T10:59:45;13.10;99.90
17774;DHT22;9011;33.236;-97.118;2023-03-12T11:02:38;13.10;99.90
17774;DHT22;9011;33.236;-97.118;2023-03-12T11:05:20;13.00;99.90
17774;DHT22;9011;33.236;-97.118;2023-03-12T11:07:49;13.00;99.90
17774;DHT22;9011;33.236;-97.118;2023-03-12T11:10:21;13.00;99.90
17774;DHT22;9011;33.236;-97.118;2023-03-12T11:12:56;12.90;99.90
17774;DHT22;9011;33.236;-97.118;2023-03-12T11:15:27;12.80;99.90
17774;DHT22;9011;33.236;-97.118;2023-03-12T11:18:29;12.80;99.90
17774;DHT22;9011;33.236;-97.118;2023-03-12T11:21:14;12.80;99.90
17774;DHT22;9011;33.236;-97.118;2023-03-12T11:23:45;12.80;99.90
17774;DHT22;9011;33.236;-97.118;2023-03-12T11:26:17;12.70;99.90
17774;DHT22;9011;33.236;-97.118;2023-03-12T11:28:48;12.70;99.90
17774;DHT22;9011;33.236;-97.118;2023-03-12T11:31:21;12.60;99.90
17774;DHT22;9011;33.236;-97.118;2023-03-12T11:33:56;12.60;99.90
17774;DHT22;9011;33.236;-97.118;2023-03-12T11:36:38;12.60;99.90
17774;DHT22;9011;33.236;-97.118;2023-03-12T11:39:18;12.60;99.90
17774;DHT22;9011;33.236;-97.118;2023-03-12T11:42:05;12.50;99.90
17774;DHT22;9011;33.236;-97.118;2023-03-12T11:44:41;12.50;99.90
17774;DHT22;9011;33.236;-97.118;2023-03-12T11:47:27;12.50;99.90
17774;DHT22;9011;33.236;-97.118;2023-03-12T11:50:14;12.50;99.90
17774;DHT22;9011;33.236;-97.118;2023-03-12T11:52:55;12.40;99.90
17774;DHT22;9011;33.236;-97.118;2023-03-12T11:55:39;12.40;99.90
17774;DHT22;9011;33.236;-97.118;2023-03-12T11:58:32;12.30;99.90
17774;DHT22;9011;33.236;-97.118;2023-03-12T12:01:09;12.30;99.90
17774;DHT22;9011;33.236;-97.118;2023-03-12T12:03:50;12.30;99.90
17774;DHT22;9011;33.236;-97.118;2023-03-12T12:06:27;12.30;99.90
17774;DHT22;9011;33.236;-97.118;2023-03-12T12:09:08;12.30;99.90
17774;DHT22;9011;33.236;-97.118;2023-03-12T12:11:47;12.20;99.90
17774;DHT22;9011;33.236;-97.118;2023-03-12T12:14:30;12.10;99.90
17774;DHT22;9011;33.236;-97.118;2023-03-12T12:17:09;12.20;99.90
17774;DHT22;9011;33.236;-97.118;2023-03-12T12:19:54;12.10;99.90
17774;DHT22;9011;33.236;-97.118;2023-03-12T12:22:37;12.20;99.90
17774;DHT22;9011;33.236;-97.118;2023-03-12T12:25:27;12.10;99.90
17774;DHT22;9011;33.236;-97.118;2023-03-12T12:31:14;12.00;99.90
17774;DHT22;9011;33.236;-97.118;2023-03-12T12:34:00;12.00;99.90
17774;DHT22;9011;33.236;-97.118;2023-03-12T12:36:33;11.90;99.90
17774;DHT22;9011;33.236;-97.118;2023-03-12T12:39:08;11.90;99.90
17774;DHT22;9011;33.236;-97.118;2023-03-12T12:41:41;11.90;99.90
17774;DHT22;9011;33.236;-97.118;2023-03-12T12:44:14;11.80;99.90
17774;DHT22;9011;33.236;-97.118;2023-03-12T12:46:47;11.90;99.90
17774;DHT22;9011;33.236;-97.118;2023-03-12T12:49:21;11.90;99.90
17774;DHT22;9011;33.236;-97.118;2023-03-12T12:51:54;11.90;99.90
17774;DHT22;9011;33.236;-97.118;2023-03-12T12:54:29;11.90;99.90
17774;DHT22;9011;33.236;-97.118;2023-03-12T12:57:02;11.80;99.90
17774;DHT22;9011;33.236;-97.118;2023-03-12T12:59:34;11.70;99.90
17774;DHT22;9011;33.236;-97.118;2023-03-12T13:02:11;11.70;99.90
17774;DHT22;9011;33.236;-97.118;2023-03-12T13:04:42;11.60;99.90
17774;DHT22;9011;33.236;-97.118;2023-03-12T13:07:31;11.70;99.90
17774;DHT22;9011;33.236;-97.118;2023-03-12T13:10:06;11.60;99.90
17774;DHT22;9011;33.236;-97.118;2023-03-12T13:12:41;11.60;99.90
17774;DHT22;9011;33.236;-97.118;2023-03-12T13:15:35;11.50;99.90
17774;DHT22;9011;33.236;-97.118;2023-03-12T13:18:16;11.60;99.90
17774;DHT22;9011;33.236;-97.118;2023-03-12T13:21:03;11.60;99.90
17774;DHT22;9011;33.236;-97.118;2023-03-12T13:23:36;11.50;99.90
17774;DHT22;9011;33.236;-97.118;2023-03-12T13:26:16;11.50;99.90
17774;DHT22;9011;33.236;-97.118;2023-03-12T13:29:17;11.50;99.90
17774;DHT22;9011;33.236;-97.118;2023-03-12T13:31:46;11.40;99.90
17774;DHT22;9011;33.236;-97.118;2023-03-12T13:34:44;11.40;99.90
17774;DHT22;9011;33.236;-97.118;2023-03-12T13:43:47;11.50;99.90
17774;DHT22;9011;33.236;-97.118;2023-03-12T13:46:40;11.50;99.90
17774;DHT22;9011;33.236;-97.118;2023-03-12T13:49:18;11.50;99.90
17774;DHT22;9011;33.236;-97.118;2023-03-12T13:51:55;11.60;99.90
17774;DHT22;9011;33.236;-97.118;2023-03-12T13:54:28;11.70;99.90
17774;DHT22;9011;33.236;-97.118;2023-03-12T13:57:01;11.80;99.90
17774;DHT22;9011;33.236;-97.118;2023-03-12T13:59:32;11.80;99.90
17774;DHT22;9011;33.236;-97.118;2023-03-12T14:02:07;11.90;99.90
17774;DHT22;9011;33.236;-97.118;2023-03-12T14:04:41;11.90;99.90
17774;DHT22;9011;33.236;-97.118;2023-03-12T14:07:30;12.00;99.90
17774;DHT22;9011;33.236;-97.118;2023-03-12T14:10:14;12.20;99.90
17774;DHT22;9011;33.236;-97.118;2023-03-12T14:12:51;12.20;99.90
17774;DHT22;9011;33.236;-97.118;2023-03-12T14:15:29;12.20;99.90
17774;DHT22;9011;33.236;-97.118;2023-03-12T14:18:03;12.20;99.90
17774;DHT22;9011;33.236;-97.118;2023-03-12T14:20:38;12.20;99.90
17774;DHT22;9011;33.236;-97.118;2023-03-12T14:23:10;12.10;99.90
17774;DHT22;9011;33.236;-97.118;2023-03-12T14:25:43;12.10;99.90
17774;DHT22;9011;33.236;-97.118;2023-03-12T14:28:15;12.20;99.90
17774;DHT22;9011;33.236;-97.118;2023-03-12T14:30:49;12.20;99.90
17774;DHT22;9011;33.236;-97.118;2023-03-12T14:33:20;12.20;99.90
17774;DHT22;9011;33.236;-97.118;2023-03-12T14:35:52;12.40;99.90
17774;DHT22;9011;33.236;-97.118;2023-03-12T14:38:27;12.40;99.90
17774;DHT22;9011;33.236;-97.118;2023-03-12T14:41:01;12.40;99.90
17774;DHT22;9011;33.236;-97.118;2023-03-12T14:43:32;12.40;99.90
17774;DHT22;9011;33.236;-97.118;2023-03-12T14:46:04;12.50;99.90
17774;DHT22;9011;33.236;-97.118;2023-03-12T14:48:35;12.60;99.90
17774;DHT22;9011;33.236;-97.118;2023-03-12T14:51:05;12.50;99.90
17774;DHT22;9011;33.236;-97.118;2023-03-12T14:53:35;12.50;99.90
17774;DHT22;9011;33.236;-97.118;2023-03-12T14:56:07;12.50;99.90
17774;DHT22;9011;33.236;-97.118;2023-03-12T14:58:43;12.40;99.90
17774;DHT22;9011;33.236;-97.118;2023-03-12T15:01:16;12.30;99.90
17774;DHT22;9011;33.236;-97.118;2023-03-12T15:03:46;12.10;99.90
17774;DHT22;9011;33.236;-97.118;2023-03-12T15:06:19;12.20;99.90
17774;DHT22;9011;33.236;-97.118;2023-03-12T15:08:50;12.20;99.90
17774;DHT22;9011;33.236;-97.118;2023-03-12T15:11:21;12.10;99.90
17774;DHT22;9011;33.236;-97.118;2023-03-12T15:13:50;12.20;99.90
17774;DHT22;9011;33.236;-97.118;2023-03-12T15:16:21;12.00;99.90
17774;DHT22;9011;33.236;-97.118;2023-03-12T15:18:50;12.00;99.90
17774;DHT22;9011;33.236;-97.118;2023-03-12T15:21:18;12.10;99.90
17774;DHT22;9011;33.236;-97.118;2023-03-12T15:23:47;12.20;99.90
17774;DHT22;9011;33.236;-97.118;2023-03-12T15:26:26;12.20;99.90
17774;DHT22;9011;33.236;-97.118;2023-03-12T15:28:56;12.50;99.90
17774;DHT22;9011;33.236;-97.118;2023-03-12T15:31:30;12.40;99.90
17774;DHT22;9011;33.236;-97.118;2023-03-12T15:34:09;12.50;99.90
17774;DHT22;9011;33.236;-97.118;2023-03-12T15:36:44;12.60;99.90
17774;DHT22;9011;33.236;-97.118;2023-03-12T15:39:24;12.60;99.90
17774;DHT22;9011;33.236;-97.118;2023-03-12T15:41:54;12.80;99.90
17774;DHT22;9011;33.236;-97.118;2023-03-12T15:44:25;13.00;99.90
17774;DHT22;9011;33.236;-97.118;2023-03-12T15:47:01;13.10;99.90
17774;DHT22;9011;33.236;-97.118;2023-03-12T15:49:33;13.20;99.90
17774;DHT22;9011;33.236;-97.118;2023-03-12T15:52:06;13.10;99.90
17774;DHT22;9011;33.236;-97.118;2023-03-12T15:55:00;13.30;99.90
17774;DHT22;9011;33.236;-97.118;2023-03-12T15:57:30;13.40;99.90